createdAt,value
2023-01-08T00:02:01.501Z,80.80
2023-01-08T00:07:06.281Z,80.43
2023-01-08T00:12:09.979Z,81.06
2023-01-08T00:17:16.386Z,80.83
2023-01-08T00:22:21.117Z,80.83
2023-01-08T00:27:25.863Z,81.25
2023-01-08T00:32:30.791Z,81.05
2023-01-08T00:37:40.591Z,81.04
2023-01-08T00:42:44.759Z,81.23
2023-01-08T00:47:48.474Z,81.54
2023-01-08T00:52:54.839Z,81.32
2023-01-08T00:57:59.419Z,81.34
2023-01-08T01:03:04.082Z,81.27
2023-01-08T01:08:09.256Z,81.32
2023-01-08T01:13:13.125Z,81.50
2023-01-08T01:18:18.556Z,81.26
2023-01-08T01:23:24.122Z,81.75
2023-01-08T01:28:32.177Z,81.54
2023-01-08T01:33:38.565Z,81.47
2023-01-08T01:38:49.379Z,81.63
2023-01-08T01:43:54.447Z,81.35
2023-01-08T01:49:04.813Z,81.54
2023-01-08T01:54:13.692Z,81.48
2023-01-08T01:59:19.593Z,81.84
2023-01-08T02:04:25.845Z,81.90
2023-01-08T02:09:44.525Z,81.67
2023-01-08T02:14:51.046Z,81.76
2023-01-08T02:20:03.851Z,81.60
2023-01-08T02:25:33.439Z,82.04
2023-01-08T02:30:37.515Z,81.95
2023-01-08T02:36:13.390Z,81.94
2023-01-08T02:41:24.457Z,82.06
2023-01-08T02:46:35.167Z,82.36
2023-01-08T02:51:52.441Z,81.64
2023-01-08T02:57:07.431Z,82.10
2023-01-08T03:02:15.531Z,82.13
2023-01-08T03:07:24.088Z,82.29
2023-01-08T03:12:59.041Z,81.93
2023-01-08T03:18:11.748Z,82.10
2023-01-08T03:23:24.199Z,82.43
2023-01-08T03:28:35.500Z,82.29
2023-01-08T03:33:39.987Z,82.51
2023-01-08T03:38:49.610Z,82.16
2023-01-08T03:43:59.622Z,82.39
2023-01-08T03:49:07.316Z,82.29
2023-01-08T03:54:19.416Z,82.62
2023-01-08T03:59:23.412Z,82.43
2023-01-08T04:04:29.351Z,82.39
2023-01-08T04:09:33.262Z,82.42
2023-01-08T04:14:39.603Z,82.09
2023-01-08T04:19:45.680Z,82.59
2023-01-08T04:24:50.371Z,82.56
2023-01-08T04:29:56.516Z,82.13
2023-01-08T04:35:00.469Z,82.55
2023-01-08T04:40:06.791Z,82.52
2023-01-08T04:45:11.049Z,82.37
2023-01-08T04:50:15.712Z,82.08
2023-01-08T04:55:21.596Z,82.18
2023-01-08T05:00:27.711Z,81.54
2023-01-08T05:05:32.878Z,81.39
2023-01-08T05:10:41.879Z,81.18
2023-01-08T05:15:49.448Z,81.05
2023-01-08T05:20:54.411Z,80.76
2023-01-08T05:26:03.603Z,80.73
2023-01-08T05:31:07.639Z,80.45
2023-01-08T05:36:13.523Z,80.25
2023-01-08T05:41:20.412Z,79.77
2023-01-08T05:46:26.716Z,79.69
2023-01-08T05:51:32.379Z,79.54
2023-01-08T05:56:38.447Z,79.56
2023-01-08T06:01:43.209Z,79.22
2023-01-08T06:06:50.173Z,79.05
2023-01-08T06:11:55.617Z,78.63
2023-01-08T06:16:59.387Z,78.45
2023-01-08T06:22:07.245Z,78.74
2023-01-08T06:27:15.580Z,78.59
2023-01-08T06:32:20.577Z,78.72
2023-01-08T06:37:25.709Z,77.90
2023-01-08T06:42:32.689Z,78.40
2023-01-08T06:47:37.401Z,77.90
2023-01-08T06:52:41.312Z,78.26
2023-01-08T06:57:46.948Z,78.23
2023-01-08T07:02:52.161Z,78.13
2023-01-08T07:07:57.872Z,77.69
2023-01-08T07:13:01.733Z,77.32
2023-01-08T07:18:06.946Z,77.76
2023-01-08T07:23:17.167Z,77.34
2023-01-08T07:28:22.295Z,77.38
2023-01-08T07:33:27.933Z,77.52
2023-01-08T07:38:34.845Z,77.66
2023-01-08T07:43:40.098Z,77.05
2023-01-08T07:48:44.810Z,77.62
2023-01-08T07:53:48.640Z,77.27
2023-01-08T07:58:54.630Z,77.61
2023-01-08T08:03:58.386Z,77.52
2023-01-08T08:09:05.409Z,77.51
2023-01-08T08:14:12.229Z,77.44
2023-01-08T08:19:18.671Z,77.12
2023-01-08T08:24:28.549Z,77.08
2023-01-08T08:29:35.027Z,77.09
2023-01-08T08:34:46.528Z,77.36
2023-01-08T08:39:50.338Z,77.53
2023-01-08T08:44:59.723Z,77.47
2023-01-08T08:50:07.469Z,77.17
2023-01-08T08:55:17.850Z,77.48
2023-01-08T09:00:30.295Z,77.10
2023-01-08T09:05:37.445Z,77.66
2023-01-08T09:10:42.919Z,77.77
2023-01-08T09:15:47.730Z,77.48
2023-01-08T09:20:53.934Z,77.54
2023-01-08T09:26:04.525Z,77.67
2023-01-08T09:31:09.804Z,77.63
2023-01-08T09:36:16.725Z,77.80
2023-01-08T09:41:33.485Z,77.83
2023-01-08T09:46:38.712Z,77.20
2023-01-08T09:51:42.636Z,77.64
2023-01-08T09:56:48.206Z,77.22
2023-01-08T10:01:55.249Z,77.66
2023-01-08T10:07:22.693Z,77.45
2023-01-08T10:12:35.625Z,77.58
2023-01-08T10:17:49.450Z,77.06
2023-01-08T10:23:00.260Z,77.58
2023-01-08T10:28:07.700Z,77.50
2023-01-08T10:33:33.746Z,77.75
2023-01-08T10:38:51.093Z,77.61
2023-01-08T10:44:03.899Z,77.81
2023-01-08T10:49:35.227Z,78.02
2023-01-08T10:54:41.316Z,78.29
2023-01-08T10:59:46.731Z,78.44
2023-01-08T11:04:54.036Z,78.96
2023-01-08T11:09:59.212Z,79.29
2023-01-08T11:15:35.181Z,79.47
2023-01-08T11:20:42.637Z,79.58
2023-01-08T11:26:12.049Z,79.88
2023-01-08T11:31:41.581Z,80.10
2023-01-08T11:37:25.011Z,79.98
2023-01-08T11:42:56.675Z,80.31
2023-01-08T11:48:14.491Z,80.62
2023-01-08T11:53:46.277Z,80.61
2023-01-08T11:58:59.211Z,80.71
2023-01-08T12:04:46.148Z,80.90
2023-01-08T12:10:13.071Z,80.99
2023-01-08T12:15:51.723Z,81.52
2023-01-08T12:21:42.281Z,81.54
2023-01-08T12:27:04.145Z,81.53
2023-01-08T12:32:25.242Z,81.54
2023-01-08T12:37:52.085Z,82.01
2023-01-08T12:43:01.667Z,82.08
2023-01-08T12:48:14.604Z,82.11
2023-01-08T12:53:25.799Z,82.53
2023-01-08T12:58:58.851Z,82.58
2023-01-08T13:04:07.446Z,82.78
2023-01-08T13:09:25.419Z,82.49
2023-01-08T13:14:44.623Z,82.76
2023-01-08T13:20:01.705Z,83.41
2023-01-08T13:25:18.680Z,83.88
2023-01-08T13:30:47.490Z,84.70
2023-01-08T13:35:53.329Z,85.08
2023-01-08T13:40:58.550Z,85.71
2023-01-08T13:46:03.205Z,85.95
2023-01-08T13:51:30.725Z,86.40
2023-01-08T13:56:42.637Z,86.25
2023-01-08T14:01:56.637Z,86.41
2023-01-08T14:07:17.181Z,87.40
2023-01-08T14:12:24.071Z,87.45
2023-01-08T14:17:34.628Z,88.06
2023-01-08T14:22:43.021Z,88.33
2023-01-08T14:27:58.953Z,88.15
2023-01-08T14:33:05.672Z,88.69
2023-01-08T14:38:16.056Z,89.02
2023-01-08T14:43:22.304Z,89.27
2023-01-08T14:48:43.017Z,90.06
2023-01-08T14:53:56.219Z,89.58
2023-01-08T14:59:08.646Z,89.86
2023-01-08T15:04:19.198Z,90.93
2023-01-08T15:09:25.437Z,90.80
2023-01-08T15:14:36.119Z,90.63
2023-01-08T15:19:49.369Z,90.79
2023-01-08T15:25:04.516Z,91.43
2023-01-08T15:30:26.491Z,91.48
2023-01-08T15:35:32.538Z,91.97
2023-01-08T15:40:38.023Z,91.73
2023-01-08T15:45:46.674Z,92.56
2023-01-08T15:50:50.550Z,92.32
2023-01-08T15:55:58.842Z,92.66
2023-01-08T16:01:07.629Z,92.72
2023-01-08T16:06:12.286Z,93.44
2023-01-08T16:11:20.848Z,92.99
2023-01-08T16:16:29.399Z,92.86
2023-01-08T16:21:34.161Z,94.10
2023-01-08T16:26:40.214Z,94.18
2023-01-08T16:31:50.061Z,93.76
2023-01-08T16:36:54.660Z,94.37
2023-01-08T16:42:03.837Z,94.11
2023-01-08T16:47:12.874Z,94.39
2023-01-08T16:52:20.893Z,94.84
2023-01-08T16:57:26.820Z,94.60
2023-01-08T17:02:30.563Z,95.17
2023-01-08T17:07:37.557Z,95.18
2023-01-08T17:12:42.821Z,95.17
2023-01-08T17:17:48.288Z,95.12
2023-01-08T17:22:54.376Z,95.57
2023-01-08T17:27:59.061Z,95.21
2023-01-08T17:33:03.587Z,95.59
2023-01-08T17:38:08.531Z,95.95
2023-01-08T17:43:13.768Z,96.13
2023-01-08T17:48:19.525Z,96.34
2023-01-08T17:53:23.376Z,96.24
2023-01-08T17:58:27.305Z,96.28
2023-01-08T18:03:31.121Z,96.87
2023-01-08T18:08:37.429Z,96.84
2023-01-08T18:13:41.263Z,96.41
2023-01-08T18:18:49.146Z,96.47
2023-01-08T18:23:57.208Z,96.99
2023-01-08T18:29:01.022Z,97.30
2023-01-08T18:34:09.376Z,97.03
2023-01-08T18:39:13.799Z,97.52
2023-01-08T18:44:17.801Z,97.05
2023-01-08T18:49:24.052Z,97.29
2023-01-08T18:54:30.724Z,97.27
2023-01-08T18:59:39.619Z,97.78
2023-01-08T19:04:44.470Z,97.77
2023-01-08T19:09:52.209Z,97.61
2023-01-08T19:14:58.271Z,97.91
2023-01-08T19:20:02.271Z,97.55
2023-01-08T19:25:08.030Z,97.81
2023-01-08T19:30:13.165Z,97.94
2023-01-08T19:35:17.980Z,97.51
2023-01-08T19:40:23.465Z,98.55
2023-01-08T19:45:27.505Z,98.24
2023-01-08T19:50:32.622Z,98.23
2023-01-08T19:55:38.915Z,98.64
2023-01-08T20:00:42.681Z,98.31
2023-01-08T20:05:47.737Z,98.09
2023-01-08T20:10:52.156Z,98.53
2023-01-08T20:15:58.794Z,98.56
2023-01-08T20:21:10.980Z,98.42
2023-01-08T20:26:21.484Z,98.08
2023-01-08T20:31:30.469Z,98.78
2023-01-08T20:36:35.673Z,98.25
2023-01-08T20:41:39.575Z,98.72
2023-01-08T20:46:48.082Z,98.57
2023-01-08T20:51:58.581Z,98.91
2023-01-08T20:57:07.628Z,98.99
2023-01-08T21:02:13.836Z,98.58
2023-01-08T21:07:17.804Z,98.74
2023-01-08T21:12:21.459Z,98.68
2023-01-08T21:17:25.440Z,99.16
2023-01-08T21:22:30.332Z,99.26
2023-01-08T21:27:35.407Z,99.18
2023-01-08T21:32:39.327Z,99.42
2023-01-08T21:37:43.130Z,99.46
2023-01-08T21:43:06.260Z,98.94
2023-01-08T21:48:13.466Z,99.25
2023-01-08T21:53:34.192Z,98.90
2023-01-08T21:58:40.071Z,98.77
2023-01-08T22:03:43.942Z,98.76
2023-01-08T22:08:55.097Z,99.00
2023-01-08T22:14:01.836Z,98.40
2023-01-08T22:19:06.555Z,98.45
2023-01-08T22:24:11.701Z,98.82
2023-01-08T22:29:16.322Z,98.40
2023-01-08T22:34:20.765Z,98.42
2023-01-08T22:39:26.784Z,97.69
2023-01-08T22:44:30.643Z,98.14
2023-01-08T22:49:36.116Z,97.84
2023-01-08T22:54:40.137Z,97.79
2023-01-08T22:59:44.056Z,97.73
2023-01-08T23:04:53.668Z,98.04
2023-01-08T23:09:57.526Z,97.49
2023-01-08T23:15:02.779Z,97.11
2023-01-08T23:20:10.078Z,97.02
2023-01-08T23:25:14.903Z,96.65
2023-01-08T23:30:19.649Z,96.41
2023-01-08T23:35:23.395Z,96.65
2023-01-08T23:40:29.844Z,96.09
2023-01-08T23:45:37.517Z,96.32
2023-01-08T23:50:45.352Z,95.60
2023-01-08T23:55:49.255Z,95.76
